Terminal Aerodrome Forecast
Issued by NWS

Home | Current Version | Previous Version | Text Only | Print | Product List | Glossary On
Versions: 1 2 3 4 5 6 7 8 9 10 11 12 13 14 15 16 17
000
FTUS45 KTFX 020500 RRA
TAFCTB
TAF
KCTB 020542Z 0206/0306 20007KT P6SM BKN120
     FM021000 28012G18KT P6SM SCT050 BKN090
     FM021500 35025G35KT 2SM -SN BLSN SCT006 OVC015
      TEMPO 0216/0220 3/4SM BLSN BKN006
     FM030200 36012KT 5SM -SN BLSN SCT015 BKN030=

USA.gov is the U.S. government's official web portal to all federal, state and local government web resources and services.